Weather observations for the past three days for
Pratt Municipal
Imperial (Metric)
Date Time (cdt) Wind (mph) Vis. (mi.) Weather Sky Cond. Temperature (ºF) Relative Humidity Wind Chill (°F) Heat Index (°F) Pressure Precipitation (in)
Air Dwpt 6 hour altimeter (in) sea level (mb) 1 hr 3 hr 6 hr
Max. Min.
03 22:35 S 17 G 22 10.00 Fair CLR 87.1 64.8 48% 89 29.89 0.0
03 22:15 S 16 10.00 Fair CLR 88.2 64.6 46% 90 29.89 0.0
03 21:55 S 16 G 24 10.00 Fair CLR 89.1 64.4 44% 91 29.88 0.0
03 21:35 S 17 G 26 10.00 Fair CLR 90.3 63.5 41% 91 29.87 0.0
03 21:15 SE 13 G 21 10.00 Fair CLR 91 62.1 38% 92 29.87 0.0
03 20:55 SE 13 G 18 10.00 Fair CLR 91.6 61 36% 92 29.85 0.0
03 20:35 SE 15 10.00 Fair CLR 93.2 60.8 34% 93 29.84 0.0
03 20:15 SE 13 10.00 Fair CLR 94.3 60.3 32% 94 29.83 0.0
03 19:55 S 15 G 21 10.00 Fair CLR 95.2 60.4 32% 95 29.83 0.0
03 19:35 SE 18 G 22 10.00 Fair CLR 96.4 60.8 31% 97 29.82 0.0
03 19:15 SE 15 G 23 10.00 Fair CLR 97.7 61 30% 98 29.82 0.0
03 18:55 SE 15 G 24 10.00 Fair CLR 98.8 60.8 103.8 97.9 29% 99 29.82 0.0
03 18:35 SE 17 G 21 10.00 Fair CLR 99.9 61 28% 101 29.82 0.0
03 18:15 S 16 10.00 Fair CLR 100.9 60.6 27% 102 29.82 0.0
03 17:55 S 18 G 23 10.00 Fair CLR 101.7 59.9 25% 102 29.81 0.0
03 17:35 S 15 G 24 10.00 Fair CLR 101.7 60.1 25% 102 29.81 0.0
03 17:15 S 17 G 23 10.00 Fair CLR 102.4 59.4 24% 103 29.81 0.0
03 16:55 S 15 G 28 10.00 Fair CLR 102.6 59.9 25% 103 29.82 0.0
03 16:35 S 15 G 21 10.00 Fair CLR 102.2 61 26% 104 29.83 0.0
03 16:15 S 18 G 25 10.00 Fair CLR 101.7 60.4 26% 103 29.83 0.0
03 15:55 S 18 G 25 10.00 Fair CLR 102.7 59.7 24% 103 29.84 0.0
03 15:35 S 16 G 25 10.00 Fair CLR 103.6 57.9 22% 104 29.84 0.0
03 15:15 S 20 G 25 10.00 Fair CLR 102.2 61 26% 104 29.84 0.0
03 14:55 S 23 G 28 10.00 Fair and Breezy CLR 102 59.7 25% 103 29.85 0.0
03 14:35 S 22 G 29 10.00 Fair and Breezy CLR 102 60.4 25% 103 29.85 0.0
03 14:15 S 17 G 28 10.00 Fair CLR 100.8 62.1 28% 102 29.86 0.0
03 13:55 S 23 G 30 10.00 Fair and Breezy CLR 100.2 62.1 29% 102 29.87 0.0
03 13:35 S 17 G 24 10.00 Fair CLR 100.4 59.7 26% 101 29.88 0.0
03 13:15 S 16 G 25 10.00 Fair CLR 99.1 59.2 27% 99 29.88 0.0
03 12:55 S 23 G 28 10.00 Fair and Breezy CLR 98.4 61 98.8 79.2 29% 99 29.89 0.0
03 12:35 S 21 G 29 10.00 Fair and Breezy CLR 97.3 62.2 31% 99 29.9 0.0
03 12:15 S 22 G 28 10.00 Fair and Breezy CLR 96.1 62.4 33% 97 29.91 0.0
03 11:55 S 21 G 29 10.00 Fair and Breezy CLR 95.2 63 34% 97 29.92 0.0
03 11:35 S 21 G 28 10.00 Fair and Breezy CLR 94.1 64 37% 96 29.92 0.0
03 11:15 S 23 G 28 10.00 Fair and Breezy CLR 92.1 64.4 40% 94 29.92 0.0
03 10:55 S 22 10.00 Fair and Breezy CLR 91.6 64 40% 93 29.92 0.0
03 10:35 S 18 G 25 10.00 Fair CLR 87.8 64.4 46% 89 29.92 0.0
03 10:15 S 22 10.00 Partly Cloudy and Breezy SCT120 88.5 64.8 45% 90 29.92 0.0
03 09:55 S 20 10.00 Partly Cloudy SCT110 86 64.6 49% 88 29.92 0.0
03 09:35 S 22 G 25 10.00 Partly Cloudy and Breezy SCT095 SCT120 83.7 64.8 53% 85 29.93 0.0
03 09:15 S 15 G 23 10.00 Mostly Cloudy BKN110 82 64.8 56% 84 29.93 0.0
03 08:55 S 17 G 21 10.00 Mostly Cloudy BKN110 81 64.6 58% 83 29.94 0.0
03 08:35 S 14 10.00 Partly Cloudy SCT120 80.1 64.4 59% 82 29.93 0.0
03 08:15 S 15 10.00 Partly Cloudy SCT120 80.1 64.4 59% 82 29.94 0.0
03 07:55 S 15 10.00 Fair CLR 79.7 63.9 59% 81 29.92 0.0
03 07:35 S 15 10.00 Fair CLR 79.7 63.7 58% 81 29.92 0.0
03 07:15 S 14 10.00 Fair CLR 79.2 63.5 59% 81 29.93 0.0
03 06:55 S 14 10.00 Fair CLR 79.7 63 85.3 79.7 57% 81 29.93 0.0
03 06:35 S 14 10.00 Fair CLR 79.9 62.8 56% 81 29.92 0.0
03 06:20 S 16 10.00 Fair CLR 80.1 62.6 55% 81 29.92 0.0
03 05:35 S 15 10.00 Fair CLR 80.6 62.1 53% 82 29.92 0.0
03 05:15 S 15 10.00 Fair CLR 80.6 61.9 53% 82 29.92 0.0
03 04:55 S 15 10.00 Fair CLR 80.8 61.7 52% 82 29.93 0.0
03 04:35 S 14 10.00 Fair CLR 81 61.5 52% 82 29.93 0.0
03 04:15 S 15 10.00 Fair CLR 81 61.2 51% 82 29.93 0.0
03 03:55 S 14 G 18 10.00 Fair CLR 80.8 61 51% 82 29.93 0.0
03 03:35 S 14 10.00 Fair CLR 80.6 60.8 51% 81 29.93 0.0
03 03:15 S 13 10.00 Fair CLR 81.3 60.8 50% 82 29.93 0.0
03 02:55 S 12 10.00 Fair CLR 82.4 60.8 48% 83 29.92 0.0
03 02:35 S 13 10.00 Fair CLR 82.9 60.4 47% 83 29.92 0.0
03 02:15 S 14 G 18 10.00 Fair CLR 83.3 60.3 46% 84 29.92 0.0
03 01:55 S 14 G 20 10.00 Fair CLR 84.2 60.3 44% 84 29.92 0.0
03 01:35 S 14 10.00 Fair CLR 84.2 60.1 44% 84 29.92 0.0
03 01:15 S 14 G 20 10.00 Fair CLR 85.1 60.1 43% 85 29.92 0.0
03 00:55 S 15 10.00 Fair CLR 85.5 60.1 98.8 85.5 42% 85 29.92 0.0
03 00:35 S 16 10.00 Fair CLR 86.4 60.1 41% 86 29.92 0.0
03 00:15 S 16 G 23 10.00 Fair CLR 87.6 60.1 40% 87 29.91 0.0
02 23:55 S 17 G 23 10.00 Fair CLR 88.2 59.9 39% 88 29.91 0.0
02 23:35 S 16 G 24 10.00 Fair CLR 88.7 59.9 38% 88 29.91 0.0
02 23:15 S 16 G 24 10.00 Fair CLR 88.9 59.9 38% 88 29.91 0.0
02 22:55 S 16 G 21 10.00 Fair CLR 89.1 59.5 37% 88 29.91 0.0
02 22:35 S 17 G 22 10.00 Fair CLR 89.6 59 36% 89 29.91 0.0
02 22:15 S 15 G 22 10.00 Fair CLR 90 58.3 34% 89 29.91 0.0
02 21:55 S 14 G 21 10.00 Fair CLR 90.5 57.2 33% 89 29.9 0.0
02 21:35 S 15 G 20 10.00 Fair CLR 91.4 57.2 32% 90 29.89 0.0
02 21:15 S 15 G 21 10.00 Fair CLR 91.8 56.8 31% 90 29.88 0.0
02 20:55 S 14 G 21 10.00 Fair CLR 92.3 57.2 31% 91 29.88 0.0
02 20:35 SE 14 10.00 Fair CLR 93.2 57 30% 92 29.87 0.0
02 20:15 SE 15 10.00 Fair CLR 94.1 56.8 29% 93 29.87 0.0
02 19:55 SE 17 G 21 10.00 Fair CLR 95.2 56.5 27% 94 29.87 0.0
02 19:35 SE 13 G 20 10.00 Fair CLR 96.8 55.9 25% 95 29.87 0.0
02 19:15 S 16 G 22 10.00 Fair CLR 97.9 55.2 24% 96 29.87 0.0
02 18:55 S 16 G 24 10.00 Partly Cloudy SCT110 99 54.9 103.3 99 23% 97 29.87 0.0
02 18:35 S 14 G 20 10.00 Partly Cloudy SCT110 99.5 54.9 22% 98 29.86 0.0
02 18:15 SE 15 G 20 10.00 Partly Cloudy SCT110 99.5 54.9 22% 98 29.87 0.0
02 17:55 S 16 G 25 10.00 Partly Cloudy SCT110 100.6 54.5 21% 99 29.87 0.0
02 17:35 SE 18 G 24 10.00 Partly Cloudy SCT100 101.7 54.5 21% 100 29.86 0.0
02 17:15 S 17 G 21 10.00 Fair CLR 102.2 53.8 20% 100 29.87 0.0
02 16:55 S 15 10.00 Partly Cloudy SCT110 100.4 53.1 20% 98 29.87 0.0
02 16:35 S 9 10.00 Mostly Cloudy BKN110 100.6 53.4 21% 98 29.88 0.0
02 16:15 S 12 10.00 Partly Cloudy SCT100 101.5 53.8 20% 100 29.89 0.0
02 15:55 S 16 G 22 10.00 Mostly Cloudy BKN110 100.8 54.1 21% 99 29.89 0.0
02 15:35 S 18 G 25 10.00 Partly Cloudy SCT110 102.2 54.5 20% 101 29.91 0.0
02 15:15 S 13 G 29 10.00 Fair CLR 102.9 54.3 20% 101 29.92 0.0
02 14:55 S 13 G 21 10.00 Partly Cloudy SCT095 102.7 54.7 20% 101 29.92 0.0
02 14:35 S 15 G 18 10.00 Partly Cloudy SCT095 101.7 54.9 21% 100 29.93 0.0
02 14:15 S 17 G 23 10.00 Partly Cloudy SCT095 101.7 55.8 22% 100 29.94 0.0
02 13:55 SW 16 G 28 10.00 Fair CLR 101.3 55.9 22% 100 29.95 0.0
02 13:35 S 16 G 24 10.00 Fair CLR 100.8 56.7 23% 100 29.95 0.0
02 13:15 SW 18 G 25 10.00 Fair CLR 100.2 57 24% 99 29.97 0.0
02 12:55 S 20 G 26 10.00 Fair CLR 99.5 57.7 100 76.1 25% 99 29.97 0.0
02 12:35 S 20 G 24 10.00 Fair CLR 98.8 58.1 26% 98 29.98 0.0
02 12:15 S 18 G 28 10.00 Fair CLR 97.5 58.3 27% 97 29.98 0.0
02 11:55 S 18 G 29 10.00 Partly Cloudy SCT110 97.2 58.5 28% 97 29.99 0.0
02 11:35 SW 21 G 25 10.00 Partly Cloudy and Breezy SCT110 96.1 58.8 29% 96 30 0.0
02 11:15 S 20 10.00 Mostly Cloudy BKN110 95.2 59.4 30% 95 30 0.0
02 10:55 S 16 G 28 10.00 Overcast OVC110 91.9 59.5 34% 91 30 0.0
02 10:35 SW 17 G 21 10.00 Mostly Cloudy BKN110 89.6 60.4 38% 89 30 0.0
02 10:15 SW 17 10.00 Partly Cloudy SCT110 85.8 61.2 44% 86 30.01 0.0
02 09:55 S 18 10.00 Partly Cloudy SCT110 88 61.2 41% 88 30.01 0.0
02 09:35 S 20 G 28 10.00 Mostly Cloudy BKN120 87.8 61.2 41% 88 30.01 0.0
02 09:15 S 18 10.00 Partly Cloudy SCT120 86.7 61.2 42% 87 30.01 0.0
02 08:55 S 15 10.00 Partly Cloudy SCT120 83.3 60.4 46% 84 30.01 0.0
02 08:35 S 13 10.00 Partly Cloudy SCT120 81 59.9 49% 82 30.01 0.0
02 08:20 S 9 10.00 Fair CLR 79.7 59.5 50% 81 30.01 0.0
02 07:15 S 10 10.00 Fair CLR 77 59 54% 79 30 0.0
02 06:55 S 9 10.00 Fair CLR 76.6 59 82 75.2 55% 78 29.99 0.0
02 06:35 S 10 10.00 Fair CLR 77 58.3 53% 79 29.99 0.0
02 06:15 S 10 10.00 Fair CLR 77 58.1 52% 79 29.99 0.0
02 05:55 S 12 10.00 Fair CLR 76.1 57.6 53% 78 29.99 0.0
02 05:35 S 9 10.00 Fair CLR 75.4 56.8 53% 78 29.99 0.0
02 05:15 S 10 10.00 Fair CLR 75.7 56.5 51% 78 29.99 0.0
02 04:55 S 9 10.00 Fair CLR 75.7 56.3 51% 78 29.99 0.0
02 04:35 S 8 10.00 Fair CLR 75.6 55.6 50% 78 29.99 0.0
02 04:15 S 10 10.00 Fair CLR 76.1 55.2 48% 78 29.99 0.0
02 03:55 S 9 10.00 Fair CLR 76.5 54.9 47% 78 29.99 0.0
02 03:35 S 10 10.00 Fair CLR 77.4 54.7 46% 79 29.98 0.0
02 03:15 S 12 10.00 Fair CLR 77.9 54.5 44% 79 29.98 0.0
02 02:55 S 12 10.00 Fair CLR 78.1 53.8 43% 79 29.98 0.0
02 02:35 S 10 10.00 Fair CLR 78.8 53.6 42% 79 29.98 0.0
02 02:15 S 12 10.00 Fair CLR 80.2 53.2 39% 80 29.98 0.0
02 01:55 S 14 10.00 Fair CLR 80.6 53.2 39% 80 29.97 0.0
02 01:35 S 12 10.00 Fair CLR 81.5 53.2 38% 81 29.97 0.0
02 01:15 S 12 10.00 Fair CLR 81.7 53.1 37% 81 29.97 0.0
02 00:55 S 12 10.00 Fair CLR 81.7 53.1 98.1 81.7 37% 81 29.97 0.0
02 00:35 S 12 10.00 Fair CLR 83.8 52.9 34% 82 29.97 0.0
02 00:15 S 13 10.00 Fair CLR 84.2 52.9 34% 83 29.97 0.0
01 23:55 S 12 10.00 Fair CLR 84.6 52.9 34% 83 29.97 0.0
01 23:35 S 13 10.00 Fair CLR 84.7 52.9 33% 83 29.97 0.0
01 23:15 S 13 10.00 Fair CLR 85.5 53.1 33% 84 29.97 0.0
01 22:55 S 13 10.00 Fair CLR 86.9 52.9 31% 85 29.97 0.0
01 22:35 S 14 G 20 10.00 Fair CLR 87.4 53.1 31% 85 29.97 0.0
01 22:15 S 14 G 20 10.00 Fair CLR 88 53.2 31% 86 29.97 0.0
01 21:55 S 12 10.00 Fair CLR 88.7 53.2 30% 86 29.96 0.0
01 21:35 S 12 G 16 10.00 Fair CLR 89.6 53.6 29% 87 29.95 0.0
01 21:15 S 12 10.00 Fair CLR 90.5 53.6 29% 88 29.95 0.0
01 20:55 S 12 10.00 Fair CLR 91.6 53.6 28% 89 29.94 0.0
01 20:35 S 9 10.00 Fair CLR 92.3 54.5 28% 90 29.93 0.0
01 20:15 S 10 10.00 Fair CLR 93.4 54.5 27% 91 29.93 0.0
01 19:55 S 12 10.00 Fair CLR 94.3 54.7 26% 92 29.92 0.0
01 19:35 S 10 G 16 10.00 Fair CLR 96.1 54.7 25% 94 29.92 0.0
01 19:15 S 14 G 18 10.00 Fair CLR 97.3 54.7 24% 95 29.92 0.0
01 18:55 S 13 10.00 Fair CLR 98.2 54.7 102 96.1 23% 96 29.92 0.0
01 18:35 S 15 10.00 Fair CLR 98.8 55 23% 97 29.92 0.0
01 18:15 S 16 10.00 Partly Cloudy SCT100 99.3 54.5 22% 97 29.93 0.0
01 17:55 S 17 G 25 10.00 Mostly Cloudy BKN100 100.2 54.5 22% 98 29.93 0.0
01 17:35 S 14 G 22 10.00 Partly Cloudy SCT100 100.4 54.3 21% 99 29.92 0.0
01 17:15 S 15 G 28 10.00 Partly Cloudy SCT100 100.9 54.1 21% 99 29.93 0.0
01 16:55 SW 14 G 22 10.00 Partly Cloudy SCT110 101.7 54.3 21% 100 29.93 0.0
01 16:35 S 14 G 22 10.00 Partly Cloudy SCT095 99.9 53.8 21% 98 29.94 0.0
01 16:15 SW 12 G 21 10.00 Partly Cloudy SCT095 98.4 54.3 23% 96 29.95 0.0
01 15:55 SW 15 G 22 10.00 Mostly Cloudy BKN095 100 54.9 22% 98 29.95 0.0
01 15:35 S 13 G 22 10.00 Mostly Cloudy BKN095 100.8 54.5 21% 99 29.96 0.0
01 15:15 SW 5 10.00 Mostly Cloudy BKN095 98.6 52 21% 96 29.97 0.0
01 14:55 S 7 10.00 Partly Cloudy SCT095 98.4 52.3 21% 96 29.98 0.0
01 14:35 S 9 10.00 Partly Cloudy SCT095 99.3 51.6 20% 97 29.99 0.0
01 14:15 S 9 G 21 10.00 Partly Cloudy SCT090 99 51.1 20% 96 30 0.0
01 13:55 SW 9 G 21 10.00 Mostly Cloudy BKN090 99.1 53.1 21% 97 30 0.0
01 13:35 S 16 G 20 10.00 Partly Cloudy SCT090 98.4 53.1 22% 96 30.01 0.0
01 13:15 S 5 10.00 Fair CLR 97 53.2 23% 95 30.02 0.0
01 12:55 S 12 G 25 10.00 Fair CLR 98.2 53.6 99 71.1 22% 96 30.02 0.0
01 12:35 S 15 G 24 10.00 Fair CLR 98.2 54.3 23% 96 30.03 0.0
01 12:15 S 20 G 23 10.00 Fair CLR 98.4 53.8 22% 96 30.03 0.0
01 11:55 SW 16 10.00 Fair CLR 97.2 56.8 26% 96 30.04 0.0
01 11:35 SW 14 G 17 10.00 Fair CLR 95.9 57.6 28% 95 30.04 0.0
01 11:15 SW 17 10.00 Fair CLR 94.3 57.4 29% 93 30.04 0.0
01 10:55 SW 14 10.00 Fair CLR 91.8 57.6 32% 91 30.04 0.0
01 10:35 SW 14 10.00 Fair CLR 90 57.2 33% 89 30.04 0.0
01 10:15 SW 16 10.00 Fair CLR 89.2 57.4 34% 88 30.04 0.0
01 09:55 SW 16 10.00 Fair CLR 87.1 57 36% 86 30.04 0.0
01 09:35 SW 14 10.00 Fair CLR 85.6 56.5 37% 84 30.04 0.0
01 09:15 SW 15 10.00 Fair CLR 84.2 56.5 39% 83 30.04 0.0
01 08:55 S 14 10.00 Partly Cloudy SCT100 81.9 56.3 42% 82 30.05 0.0
01 08:35 S 10 10.00 Partly Cloudy SCT100 79.7 56.3 45% 80 30.04 0.0
01 08:15 S 10 10.00 Partly Cloudy SCT100 77.5 55.8 47% 79 30.04 0.0
01 07:55 S 10 10.00 Partly Cloudy SCT100 75.7 55.6 50% 78 30.04 0.0
01 07:35 S 7 10.00 Partly Cloudy SCT100 74.7 55.4 51% 30.03 0.0
01 07:15 S 8 10.00 Partly Cloudy SCT100 72.7 55.4 55% 30.03 0.0
01 06:55 S 7 10.00 Partly Cloudy SCT100 72.1 55.4 83.3 70 56% 30.03 0.0
01 06:35 S 8 10.00 Partly Cloudy SCT100 71.2 55 57% 30.03 0.0
01 06:15 S 8 10.00 Fair CLR 70.3 54.9 58% 30.03 0.0
01 05:55 S 8 10.00 Fair CLR 71.6 54.9 56% 30.02 0.0
01 05:30 S 7 10.00 Fair CLR 72 55.4 56% 30.03 0.0
01 05:15 S 8 10.00 Fair CLR 72.3 55.2 55% 30.02 0.0
01 04:55 S 6 10.00 Fair CLR 74.5 55 51% 30.02 0.0
01 04:35 S 7 10.00 Fair CLR 73 54.9 53% 30.02 0.0
01 04:15 S 6 10.00 Fair CLR 74.7 54.7 50% 30.02 0.0
01 03:15 S 8 10.00 Fair CLR 75.9 55.4 49% 78 30 0.0
01 02:55 S 9 10.00 Fair CLR 76.6 55.4 48% 78 30.01 0.0
01 02:35 S 10 10.00 Fair CLR 79 55.4 44% 80 30.01 0.0
01 02:15 S 12 10.00 Fair CLR 80.8 55.6 42% 81 30 0.0
01 01:55 S 12 10.00 Fair CLR 81.7 55.6 41% 81 30 0.0
01 01:35 S 13 10.00 Fair CLR 81.7 55.6 41% 81 30 0.0
01 01:15 S 14 10.00 Fair CLR 82.4 55.8 40% 82 30 0.0
01 00:55 S 13 10.00 Fair CLR 83.5 55.9 100.6 83.5 39% 83 30 0.0
01 00:35 S 14 10.00 Fair CLR 84.9 55.8 37% 84 29.99 0.0
01 00:15 S 14 10.00 Fair CLR 85.3 55.9 37% 84 30 0.0
31 23:55 S 14 10.00 Fair CLR 86 56.3 36% 85 29.99 0.0
31 23:35 S 13 G 20 10.00 Fair CLR 87.1 56.3 35% 86 29.99 0.0
31 23:15 S 13 10.00 Fair CLR 88.2 56.3 34% 87 29.99 0.0
Date Time (cdt) Wind (mph) Vis. (mi.) Weather Sky Cond. Air Dwpt Max. Min. Relative Humidity Wind Chill (°F) Heat Index (°F) altimeter (in) sea level (mb) 1 hr 3 hr 6 hr
6 hour
Temperature (ºF) Pressure Precipitation (in)